sensor_id;sensor_type;location;lat;lon;timestamp;pressure;altitude;pressure_sealevel;temperature;humidity
24892;BME280;12954;50.688;10.908;2022-10-16T00:01:26;95387.41;;;13.74;69.64
24892;BME280;12954;50.688;10.908;2022-10-16T00:03:56;95378.78;;;13.72;69.72
24892;BME280;12954;50.688;10.908;2022-10-16T00:06:26;95345.78;;;13.57;69.75
24892;BME280;12954;50.688;10.908;2022-10-16T00:08:56;95369.53;;;13.73;69.68
24892;BME280;12954;50.688;10.908;2022-10-16T00:11:26;95364.41;;;13.72;69.87
24892;BME280;12954;50.688;10.908;2022-10-16T00:13:57;95342.84;;;13.53;69.85
24892;BME280;12954;50.688;10.908;2022-10-16T00:16:26;95366.03;;;13.73;69.83
24892;BME280;12954;50.688;10.908;2022-10-16T00:18:55;95361.09;;;13.75;69.80
24892;BME280;12954;50.688;10.908;2022-10-16T00:21:25;95368.75;;;13.73;69.86
24892;BME280;12954;50.688;10.908;2022-10-16T00:23:57;95371.34;;;13.78;69.89
24892;BME280;12954;50.688;10.908;2022-10-16T00:26:28;95373.25;;;13.77;69.76
24892;BME280;12954;50.688;10.908;2022-10-16T00:28:57;95373.56;;;13.76;69.78
24892;BME280;12954;50.688;10.908;2022-10-16T00:31:26;95372.91;;;13.79;69.62
24892;BME280;12954;50.688;10.908;2022-10-16T00:33:55;95378.19;;;13.75;69.82
24892;BME280;12954;50.688;10.908;2022-10-16T00:36:25;95375.03;;;13.82;69.26
24892;BME280;12954;50.688;10.908;2022-10-16T00:38:56;95403.25;;;13.81;69.21
24892;BME280;12954;50.688;10.908;2022-10-16T00:41:27;95389.72;;;13.81;69.04
24892;BME280;12954;50.688;10.908;2022-10-16T00:43:58;95336.59;;;13.53;68.74
24892;BME280;12954;50.688;10.908;2022-10-16T00:46:29;95396.72;;;13.82;68.92
24892;BME280;12954;50.688;10.908;2022-10-16T00:49:01;95369.84;;;13.72;68.73
24892;BME280;12954;50.688;10.908;2022-10-16T00:51:33;95373.56;;;13.76;68.96
24892;BME280;12954;50.688;10.908;2022-10-16T00:54:07;95385.09;;;13.81;69.05
24892;BME280;12954;50.688;10.908;2022-10-16T00:56:37;95355.28;;;13.68;69.16
24892;BME280;12954;50.688;10.908;2022-10-16T00:59:09;95383.69;;;13.84;69.13
24892;BME280;12954;50.688;10.908;2022-10-16T01:01:40;95391.81;;;13.84;69.20
24892;BME280;12954;50.688;10.908;2022-10-16T01:04:08;95381.25;;;13.82;69.22
24892;BME280;12954;50.688;10.908;2022-10-16T01:06:43;95370.84;;;13.76;69.13
24892;BME280;12954;50.688;10.908;2022-10-16T01:09:17;95384.78;;;13.83;69.15
24892;BME280;12954;50.688;10.908;2022-10-16T01:11:55;95370.34;;;13.74;69.13
24892;BME280;12954;50.688;10.908;2022-10-16T01:14:34;95363.53;;;13.63;69.17
24892;BME280;12954;50.688;10.908;2022-10-16T01:17:12;95384.56;;;13.79;69.17
24892;BME280;12954;50.688;10.908;2022-10-16T01:20:04;95373.66;;;13.71;69.08
24892;BME280;12954;50.688;10.908;2022-10-16T01:22:41;95363.03;;;13.61;68.97
24892;BME280;12954;50.688;10.908;2022-10-16T01:25:19;95375.38;;;13.67;69.04
24892;BME280;12954;50.688;10.908;2022-10-16T01:27:52;95386.47;;;13.79;68.72
24892;BME280;12954;50.688;10.908;2022-10-16T01:30:22;95406.88;;;13.76;68.75
24892;BME280;12954;50.688;10.908;2022-10-16T01:32:55;95390.59;;;13.76;68.62
24892;BME280;12954;50.688;10.908;2022-10-16T01:35:27;95381.69;;;13.76;68.52
24892;BME280;12954;50.688;10.908;2022-10-16T01:38:02;95367.53;;;13.52;68.60
24892;BME280;12954;50.688;10.908;2022-10-16T01:40:32;95397.97;;;13.76;68.40
24892;BME280;12954;50.688;10.908;2022-10-16T01:43:06;95399.88;;;13.75;68.38
24892;BME280;12954;50.688;10.908;2022-10-16T01:45:36;95403.47;;;13.71;68.40
24892;BME280;12954;50.688;10.908;2022-10-16T01:48:05;95416.41;;;13.74;68.28
24892;BME280;12954;50.688;10.908;2022-10-16T01:50:39;95410.09;;;13.65;68.35
24892;BME280;12954;50.688;10.908;2022-10-16T01:53:11;95417.53;;;13.73;68.25
24892;BME280;12954;50.688;10.908;2022-10-16T01:55:43;95407.31;;;13.70;68.31
24892;BME280;12954;50.688;10.908;2022-10-16T01:58:16;95394.66;;;13.52;68.31
24892;BME280;12954;50.688;10.908;2022-10-16T02:00:45;95417.63;;;13.68;68.26
24892;BME280;12954;50.688;10.908;2022-10-16T02:03:16;95412.22;;;13.68;68.18
24892;BME280;12954;50.688;10.908;2022-10-16T02:05:48;95384.69;;;13.47;68.15
24892;BME280;12954;50.688;10.908;2022-10-16T02:08:18;95410.63;;;13.67;68.01
24892;BME280;12954;50.688;10.908;2022-10-16T02:10:47;95415.72;;;13.68;67.90
24892;BME280;12954;50.688;10.908;2022-10-16T02:13:21;95413.81;;;13.69;67.89
24892;BME280;12954;50.688;10.908;2022-10-16T02:15:51;95407.91;;;13.67;68.01
24892;BME280;12954;50.688;10.908;2022-10-16T02:18:19;95409.81;;;13.66;67.93
24892;BME280;12954;50.688;10.908;2022-10-16T02:20:51;95413.63;;;13.65;67.86
24892;BME280;12954;50.688;10.908;2022-10-16T02:23:30;95420.94;;;13.65;68.09
24892;BME280;12954;50.688;10.908;2022-10-16T02:26:04;95411.84;;;13.61;68.20
24892;BME280;12954;50.688;10.908;2022-10-16T02:28:40;95409.63;;;13.63;68.11
24892;BME280;12954;50.688;10.908;2022-10-16T02:31:12;95409.00;;;13.66;67.91
24892;BME280;12954;50.688;10.908;2022-10-16T02:33:45;95425.38;;;13.61;67.75
24892;BME280;12954;50.688;10.908;2022-10-16T02:36:14;95414.84;;;13.59;67.90
24892;BME280;12954;50.688;10.908;2022-10-16T02:38:43;95417.13;;;13.52;67.68
24892;BME280;12954;50.688;10.908;2022-10-16T02:41:12;95415.97;;;13.58;67.42
24892;BME280;12954;50.688;10.908;2022-10-16T02:43:43;95421.44;;;13.53;67.52
24892;BME280;12954;50.688;10.908;2022-10-16T02:46:11;95423.34;;;13.53;67.61
24892;BME280;12954;50.688;10.908;2022-10-16T02:48:40;95428.75;;;13.53;67.46
24892;BME280;12954;50.688;10.908;2022-10-16T02:51:08;95423.34;;;13.53;67.40
24892;BME280;12954;50.688;10.908;2022-10-16T02:53:36;95419.53;;;13.54;67.31
24892;BME280;12954;50.688;10.908;2022-10-16T02:56:05;95422.75;;;13.56;67.25
24892;BME280;12954;50.688;10.908;2022-10-16T02:58:33;95419.53;;;13.54;67.37
24892;BME280;12954;50.688;10.908;2022-10-16T03:01:03;95407.88;;;13.53;67.52
24892;BME280;12954;50.688;10.908;2022-10-16T03:03:32;95422.25;;;13.54;67.66
24892;BME280;12954;50.688;10.908;2022-10-16T03:06:00;95422.75;;;13.56;67.54
24892;BME280;12954;50.688;10.908;2022-10-16T03:08:29;95418.50;;;13.50;67.82
24892;BME280;12954;50.688;10.908;2022-10-16T03:10:58;95421.75;;;13.52;67.95
24892;BME280;12954;50.688;10.908;2022-10-16T03:13:26;95401.47;;;13.35;67.83
24892;BME280;12954;50.688;10.908;2022-10-16T03:15:54;95426.16;;;13.48;68.17
24892;BME280;12954;50.688;10.908;2022-10-16T03:18:24;95424.94;;;13.54;68.15
24892;BME280;12954;50.688;10.908;2022-10-16T03:20:53;95426.81;;;13.58;68.17
24892;BME280;12954;50.688;10.908;2022-10-16T03:23:21;95420.63;;;13.53;68.53
24892;BME280;12954;50.688;10.908;2022-10-16T03:25:50;95415.75;;;13.55;68.42
24892;BME280;12954;50.688;10.908;2022-10-16T03:28:19;95396.47;;;13.43;68.65
24892;BME280;12954;50.688;10.908;2022-10-16T03:30:47;95422.84;;;13.51;68.77
24892;BME280;12954;50.688;10.908;2022-10-16T03:33:15;95423.34;;;13.53;69.03
24892;BME280;12954;50.688;10.908;2022-10-16T03:35:50;95424.38;;;13.57;68.98
24892;BME280;12954;50.688;10.908;2022-10-16T03:38:19;95409.28;;;13.51;68.96
24892;BME280;12954;50.688;10.908;2022-10-16T03:40:48;95431.59;;;13.61;69.02
24892;BME280;12954;50.688;10.908;2022-10-16T03:43:17;95420.25;;;13.59;69.19
24892;BME280;12954;50.688;10.908;2022-10-16T03:45:45;95414.34;;;13.57;68.92
24892;BME280;12954;50.688;10.908;2022-10-16T03:48:14;95424.25;;;13.62;68.83
24892;BME280;12954;50.688;10.908;2022-10-16T03:50:42;95428.09;;;13.61;68.84
24892;BME280;12954;50.688;10.908;2022-10-16T03:53:12;95431.41;;;13.58;68.91
24892;BME280;12954;50.688;10.908;2022-10-16T03:55:41;95433.00;;;13.59;68.92
24892;BME280;12954;50.688;10.908;2022-10-16T03:58:10;95428.09;;;13.61;68.76
24892;BME280;12954;50.688;10.908;2022-10-16T04:00:40;95417.41;;;13.51;68.81
24892;BME280;12954;50.688;10.908;2022-10-16T04:03:09;95440.03;;;13.60;68.91
24892;BME280;12954;50.688;10.908;2022-10-16T04:05:38;95447.25;;;13.64;68.83
24892;BME280;12954;50.688;10.908;2022-10-16T04:08:06;95456.09;;;13.70;68.27
24892;BME280;12954;50.688;10.908;2022-10-16T04:10:36;95451.09;;;13.63;68.38
24892;BME280;12954;50.688;10.908;2022-10-16T04:13:05;95441.66;;;13.61;68.55
24892;BME280;12954;50.688;10.908;2022-10-16T04:15:33;95449.09;;;13.55;68.67
24892;BME280;12954;50.688;10.908;2022-10-16T04:18:01;95472.78;;;13.63;68.94
24892;BME280;12954;50.688;10.908;2022-10-16T04:20:30;95464.31;;;13.65;68.96
24892;BME280;12954;50.688;10.908;2022-10-16T04:22:58;95469.13;;;13.68;68.89
24892;BME280;12954;50.688;10.908;2022-10-16T04:25:27;95450.69;;;13.70;68.94
24892;BME280;12954;50.688;10.908;2022-10-16T04:27:56;95462.13;;;13.67;69.02
24892;BME280;12954;50.688;10.908;2022-10-16T04:30:25;95433.69;;;13.51;69.06
24892;BME280;12954;50.688;10.908;2022-10-16T04:32:53;95470.97;;;13.72;69.08
24892;BME280;12954;50.688;10.908;2022-10-16T04:35:22;95486.41;;;13.72;69.09
24892;BME280;12954;50.688;10.908;2022-10-16T04:37:50;95483.38;;;13.73;69.03
24892;BME280;12954;50.688;10.908;2022-10-16T04:40:18;95443.63;;;13.42;69.05
24892;BME280;12954;50.688;10.908;2022-10-16T04:42:47;95485.91;;;13.83;68.53
24892;BME280;12954;50.688;10.908;2022-10-16T04:45:17;95479.38;;;13.71;68.57
24892;BME280;12954;50.688;10.908;2022-10-16T04:47:45;95490.81;;;13.68;68.78
24892;BME280;12954;50.688;10.908;2022-10-16T04:50:13;95486.22;;;13.68;68.95
24892;BME280;12954;50.688;10.908;2022-10-16T04:52:42;95493.25;;;13.69;68.82
24892;BME280;12954;50.688;10.908;2022-10-16T04:55:10;95500.25;;;13.70;68.80
24892;BME280;12954;50.688;10.908;2022-10-16T04:57:39;95509.72;;;13.73;68.69
24892;BME280;12954;50.688;10.908;2022-10-16T05:00:09;95496.25;;;13.68;68.64
24892;BME280;12954;50.688;10.908;2022-10-16T05:02:39;95510.22;;;13.75;68.62
24892;BME280;12954;50.688;10.908;2022-10-16T05:05:08;95514.63;;;13.71;68.94
24892;BME280;12954;50.688;10.908;2022-10-16T05:07:36;95523.34;;;13.68;69.19
24892;BME280;12954;50.688;10.908;2022-10-16T05:10:05;95527.28;;;13.75;69.22
24892;BME280;12954;50.688;10.908;2022-10-16T05:12:34;95530.28;;;13.74;69.44
24892;BME280;12954;50.688;10.908;2022-10-16T05:15:03;95522.16;;;13.74;69.49
24892;BME280;12954;50.688;10.908;2022-10-16T05:17:32;95513.91;;;13.79;69.39
24892;BME280;12954;50.688;10.908;2022-10-16T05:20:03;95525.47;;;13.71;69.84
24892;BME280;12954;50.688;10.908;2022-10-16T05:22:31;95518.94;;;13.72;70.02
24892;BME280;12954;50.688;10.908;2022-10-16T05:25:00;95489.44;;;13.57;69.97
24892;BME280;12954;50.688;10.908;2022-10-16T05:27:28;95527.38;;;13.70;70.28
24892;BME280;12954;50.688;10.908;2022-10-16T05:29:57;95531.50;;;13.68;70.32
24892;BME280;12954;50.688;10.908;2022-10-16T05:32:25;95533.72;;;13.66;70.55
24892;BME280;12954;50.688;10.908;2022-10-16T05:34:54;95514.06;;;13.42;70.59
24892;BME280;12954;50.688;10.908;2022-10-16T05:37:24;95544.84;;;13.64;70.72
24892;BME280;12954;50.688;10.908;2022-10-16T05:39:53;95549.06;;;13.70;70.21
24892;BME280;12954;50.688;10.908;2022-10-16T05:42:21;95501.97;;;13.20;70.46
24892;BME280;12954;50.688;10.908;2022-10-16T05:44:49;95504.63;;;13.25;70.27
24892;BME280;12954;50.688;10.908;2022-10-16T05:47:18;95567.13;;;13.61;70.37
24892;BME280;12954;50.688;10.908;2022-10-16T05:49:47;95561.91;;;13.65;69.99
24892;BME280;12954;50.688;10.908;2022-10-16T05:52:16;95562.94;;;13.69;69.65
24892;BME280;12954;50.688;10.908;2022-10-16T05:54:45;95569.53;;;13.63;69.76
24892;BME280;12954;50.688;10.908;2022-10-16T05:57:14;95581.78;;;13.60;69.87
24892;BME280;12954;50.688;10.908;2022-10-16T05:59:42;95566.94;;;13.58;70.03
24892;BME280;12954;50.688;10.908;2022-10-16T06:02:12;95571.22;;;13.59;69.98
24892;BME280;12954;50.688;10.908;2022-10-16T06:04:40;95583.19;;;13.58;70.06
24892;BME280;12954;50.688;10.908;2022-10-16T06:07:09;95592.31;;;13.62;69.78
24892;BME280;12954;50.688;10.908;2022-10-16T06:09:37;95588.53;;;13.63;69.81
24892;BME280;12954;50.688;10.908;2022-10-16T06:12:07;95591.63;;;13.56;70.14
24892;BME280;12954;50.688;10.908;2022-10-16T06:14:36;95578.94;;;13.52;70.32
24892;BME280;12954;50.688;10.908;2022-10-16T06:17:05;95581.66;;;13.52;70.72
24892;BME280;12954;50.688;10.908;2022-10-16T06:19:33;95583.00;;;13.54;70.81
24892;BME280;12954;50.688;10.908;2022-10-16T06:22:01;95578.06;;;13.56;70.97
24892;BME280;12954;50.688;10.908;2022-10-16T06:24:31;95577.25;;;13.56;71.11
24892;BME280;12954;50.688;10.908;2022-10-16T06:26:59;95570.94;;;13.60;71.18
24892;BME280;12954;50.688;10.908;2022-10-16T06:29:29;95583.38;;;13.61;71.29
24892;BME280;12954;50.688;10.908;2022-10-16T06:31:58;95577.97;;;13.61;71.40
24892;BME280;12954;50.688;10.908;2022-10-16T06:34:26;95583.59;;;13.65;71.54
24892;BME280;12954;50.688;10.908;2022-10-16T06:36:54;95581.41;;;13.67;71.53
24892;BME280;12954;50.688;10.908;2022-10-16T06:39:23;95584.63;;;13.69;71.58
24892;BME280;12954;50.688;10.908;2022-10-16T06:41:51;95593.78;;;13.73;71.45
24892;BME280;12954;50.688;10.908;2022-10-16T06:44:20;95542.78;;;13.43;71.61
24892;BME280;12954;50.688;10.908;2022-10-16T06:46:50;95574.25;;;13.57;71.59
24892;BME280;12954;50.688;10.908;2022-10-16T06:49:18;95596.97;;;13.75;71.54
24892;BME280;12954;50.688;10.908;2022-10-16T06:51:49;95604.31;;;13.74;71.64
24892;BME280;12954;50.688;10.908;2022-10-16T06:54:17;95602.50;;;13.70;71.68
24892;BME280;12954;50.688;10.908;2022-10-16T06:56:45;95606.31;;;13.69;71.73
24892;BME280;12954;50.688;10.908;2022-10-16T06:59:14;95611.13;;;13.72;71.61
24892;BME280;12954;50.688;10.908;2022-10-16T07:01:42;95617.38;;;13.72;71.71
24892;BME280;12954;50.688;10.908;2022-10-16T07:04:12;95613.03;;;13.71;71.62
24892;BME280;12954;50.688;10.908;2022-10-16T07:06:40;95619.28;;;13.72;71.77
24892;BME280;12954;50.688;10.908;2022-10-16T07:09:10;95626.59;;;13.71;71.67
24892;BME280;12954;50.688;10.908;2022-10-16T07:11:39;95637.16;;;13.73;71.73
24892;BME280;12954;50.688;10.908;2022-10-16T07:14:15;95634.44;;;13.73;71.72
24892;BME280;12954;50.688;10.908;2022-10-16T07:16:44;95636.03;;;13.74;72.02
24892;BME280;12954;50.688;10.908;2022-10-16T07:19:14;95646.00;;;13.78;71.88
24892;BME280;12954;50.688;10.908;2022-10-16T07:21:44;95650.31;;;13.79;71.89
24892;BME280;12954;50.688;10.908;2022-10-16T07:24:14;95654.63;;;13.80;71.97
24892;BME280;12954;50.688;10.908;2022-10-16T07:26:44;95649.72;;;13.82;72.10
24892;BME280;12954;50.688;10.908;2022-10-16T07:29:14;95651.31;;;13.83;72.06
24892;BME280;12954;50.688;10.908;2022-10-16T07:31:43;95609.13;;;13.64;72.10
24892;BME280;12954;50.688;10.908;2022-10-16T07:34:15;95636.25;;;13.77;71.92
24892;BME280;12954;50.688;10.908;2022-10-16T07:36:46;95642.38;;;13.83;72.22
24892;BME280;12954;50.688;10.908;2022-10-16T07:39:15;95655.94;;;13.83;72.21
24892;BME280;12954;50.688;10.908;2022-10-16T07:41:44;95661.69;;;13.81;72.48
24892;BME280;12954;50.688;10.908;2022-10-16T07:44:12;95653.72;;;13.85;72.53
24892;BME280;12954;50.688;10.908;2022-10-16T07:46:40;95654.25;;;13.87;72.46
24892;BME280;12954;50.688;10.908;2022-10-16T07:49:09;95648.72;;;13.92;72.38
24892;BME280;12954;50.688;10.908;2022-10-16T07:51:38;95655.66;;;13.98;72.41
24892;BME280;12954;50.688;10.908;2022-10-16T07:54:08;95654.25;;;14.01;72.43
24892;BME280;12954;50.688;10.908;2022-10-16T07:56:36;95656.16;;;14.00;72.71
24892;BME280;12954;50.688;10.908;2022-10-16T07:59:09;95679.47;;;14.01;72.54
24892;BME280;12954;50.688;10.908;2022-10-16T08:01:38;95672.75;;;13.99;72.66
24892;BME280;12954;50.688;10.908;2022-10-16T08:04:06;95675.69;;;14.02;72.60
24892;BME280;12954;50.688;10.908;2022-10-16T08:06:36;95660.56;;;13.82;72.66
24892;BME280;12954;50.688;10.908;2022-10-16T08:09:07;95680.50;;;14.05;72.51
24892;BME280;12954;50.688;10.908;2022-10-16T08:11:38;95700.09;;;14.02;72.69
24892;BME280;12954;50.688;10.908;2022-10-16T08:14:06;95701.19;;;14.01;72.77
24892;BME280;12954;50.688;10.908;2022-10-16T08:16:35;95695.97;;;14.05;72.62
24892;BME280;12954;50.688;10.908;2022-10-16T08:19:03;95703.81;;;14.06;72.56
24892;BME280;12954;50.688;10.908;2022-10-16T08:21:32;95703.00;;;14.06;72.66
24892;BME280;12954;50.688;10.908;2022-10-16T08:24:01;95699.50;;;14.05;72.78
24892;BME280;12954;50.688;10.908;2022-10-16T08:26:30;95710.84;;;14.07;72.78
24892;BME280;12954;50.688;10.908;2022-10-16T08:28:59;95715.34;;;14.12;72.49
24892;BME280;12954;50.688;10.908;2022-10-16T08:31:27;95718.28;;;14.15;72.34
24892;BME280;12954;50.688;10.908;2022-10-16T08:33:56;95726.75;;;14.14;72.49
24892;BME280;12954;50.688;10.908;2022-10-16T08:36:24;95729.94;;;14.16;72.54
24892;BME280;12954;50.688;10.908;2022-10-16T08:38:53;95719.09;;;14.16;72.69
24892;BME280;12954;50.688;10.908;2022-10-16T08:41:31;95723.94;;;14.19;72.45
24892;BME280;12954;50.688;10.908;2022-10-16T08:44:24;95717.31;;;14.25;72.43
24892;BME280;12954;50.688;10.908;2022-10-16T08:47:02;95724.94;;;14.23;72.53
24892;BME280;12954;50.688;10.908;2022-10-16T08:49:37;95723.53;;;14.25;72.58
24892;BME280;12954;50.688;10.908;2022-10-16T08:52:11;95734.78;;;14.32;72.46
24892;BME280;12954;50.688;10.908;2022-10-16T08:54:42;95747.28;;;14.33;72.56
24892;BME280;12954;50.688;10.908;2022-10-16T08:57:17;95743.84;;;14.41;72.21
24892;BME280;12954;50.688;10.908;2022-10-16T08:59:50;95749.50;;;14.45;72.26
24892;BME280;12954;50.688;10.908;2022-10-16T09:02:24;95745.91;;;14.50;72.00
24892;BME280;12954;50.688;10.908;2022-10-16T09:05:16;95755.97;;;14.49;72.03
24892;BME280;12954;50.688;10.908;2022-10-16T09:07:53;95762.19;;;14.50;71.98
24892;BME280;12954;50.688;10.908;2022-10-16T09:10:31;95760.97;;;14.56;71.77
24892;BME280;12954;50.688;10.908;2022-10-16T09:13:14;95764.81;;;14.55;71.80
24892;BME280;12954;50.688;10.908;2022-10-16T09:15:51;95767.72;;;14.58;72.07
24892;BME280;12954;50.688;10.908;2022-10-16T09:18:26;95707.94;;;14.17;72.26
24892;BME280;12954;50.688;10.908;2022-10-16T09:21:02;95760.59;;;14.62;72.17
24892;BME280;12954;50.688;10.908;2022-10-16T09:23:36;95752.34;;;14.67;72.51
24892;BME280;12954;50.688;10.908;2022-10-16T09:26:05;95710.59;;;14.50;72.28
24892;BME280;12954;50.688;10.908;2022-10-16T09:28:39;95753.78;;;14.78;72.39
24892;BME280;12954;50.688;10.908;2022-10-16T09:31:15;95767.34;;;14.92;72.03
24892;BME280;12954;50.688;10.908;2022-10-16T09:33:48;95770.66;;;15.02;72.27
24892;BME280;12954;50.688;10.908;2022-10-16T09:36:19;95754.06;;;15.04;72.07
24892;BME280;12954;50.688;10.908;2022-10-16T09:38:49;95771.63;;;15.20;72.10
24892;BME280;12954;50.688;10.908;2022-10-16T09:41:22;95774.88;;;15.22;72.06
24892;BME280;12954;50.688;10.908;2022-10-16T09:43:55;95788.13;;;15.24;71.98
24892;BME280;12954;50.688;10.908;2022-10-16T09:46:27;95786.34;;;15.19;71.98
24892;BME280;12954;50.688;10.908;2022-10-16T09:48:57;95783.44;;;15.16;71.85
24892;BME280;12954;50.688;10.908;2022-10-16T09:51:28;95790.78;;;15.15;71.84
24892;BME280;12954;50.688;10.908;2022-10-16T09:53:59;95790.78;;;15.15;71.54
24892;BME280;12954;50.688;10.908;2022-10-16T09:56:29;95775.09;;;14.98;71.54
24892;BME280;12954;50.688;10.908;2022-10-16T09:59:02;95804.34;;;15.15;71.37
24892;BME280;12954;50.688;10.908;2022-10-16T10:01:36;95793.09;;;15.22;71.53
24892;BME280;12954;50.688;10.908;2022-10-16T10:04:06;95800.03;;;15.28;71.51
24892;BME280;12954;50.688;10.908;2022-10-16T10:06:36;95798.00;;;15.33;71.18
24892;BME280;12954;50.688;10.908;2022-10-16T10:09:15;95804.16;;;15.39;71.00
24892;BME280;12954;50.688;10.908;2022-10-16T10:11:51;95800.03;;;15.41;70.79
24892;BME280;12954;50.688;10.908;2022-10-16T10:14:31;95797.03;;;15.43;71.06
24892;BME280;12954;50.688;10.908;2022-10-16T10:17:15;95753.22;;;15.17;70.34
24892;BME280;12954;50.688;10.908;2022-10-16T10:19:49;95809.28;;;15.40;70.60
24892;BME280;12954;50.688;10.908;2022-10-16T10:22:27;95797.19;;;15.33;70.52
24892;BME280;12954;50.688;10.908;2022-10-16T10:25:15;95811.00;;;15.36;70.43
24892;BME280;12954;50.688;10.908;2022-10-16T10:27:55;95796.38;;;15.32;70.64
24892;BME280;12954;50.688;10.908;2022-10-16T10:30:33;95784.13;;;15.21;71.03
24892;BME280;12954;50.688;10.908;2022-10-16T10:33:14;95803.22;;;15.43;70.97
24892;BME280;12954;50.688;10.908;2022-10-16T10:35:52;95807.56;;;15.44;71.41
24892;BME280;12954;50.688;10.908;2022-10-16T10:38:31;95801.41;;;15.52;71.08
24892;BME280;12954;50.688;10.908;2022-10-16T10:41:18;95805.75;;;15.53;70.95
24892;BME280;12954;50.688;10.908;2022-10-16T10:44:03;95806.16;;;15.61;70.73
24892;BME280;12954;50.688;10.908;2022-10-16T10:46:41;95811.75;;;15.64;70.62
24892;BME280;12954;50.688;10.908;2022-10-16T10:49:36;95803.66;;;15.73;70.82
24892;BME280;12954;50.688;10.908;2022-10-16T10:52:27;95811.66;;;15.69;70.74
24892;BME280;12954;50.688;10.908;2022-10-16T10:55:15;95820.13;;;15.68;70.67
24892;BME280;12954;50.688;10.908;2022-10-16T10:57:58;95810.03;;;15.68;70.83
24892;BME280;12954;50.688;10.908;2022-10-16T11:00:38;95812.63;;;15.73;70.46
24892;BME280;12954;50.688;10.908;2022-10-16T11:03:16;95810.44;;;15.75;70.40
24892;BME280;12954;50.688;10.908;2022-10-16T11:05:50;95812.72;;;15.82;70.50
24892;BME280;12954;50.688;10.908;2022-10-16T11:08:25;95813.22;;;15.84;70.84
24892;BME280;12954;50.688;10.908;2022-10-16T11:10:58;95754.06;;;15.53;70.48
24892;BME280;12954;50.688;10.908;2022-10-16T11:13:32;95812.56;;;16.00;70.11
24892;BME280;12954;50.688;10.908;2022-10-16T11:16:06;95814.16;;;16.01;70.42
24892;BME280;12954;50.688;10.908;2022-10-16T11:18:49;95801.84;;;16.04;70.19
24892;BME280;12954;50.688;10.908;2022-10-16T11:21:19;95768.47;;;15.90;70.04
24892;BME280;12954;50.688;10.908;2022-10-16T11:24:04;95812.94;;;16.07;70.17
24892;BME280;12954;50.688;10.908;2022-10-16T11:26:36;95805.19;;;16.01;70.06
24892;BME280;12954;50.688;10.908;2022-10-16T11:29:12;95819.97;;;16.08;70.03
24892;BME280;12954;50.688;10.908;2022-10-16T11:31:46;95825.31;;;16.13;69.70
24892;BME280;12954;50.688;10.908;2022-10-16T11:34:22;95820.66;;;16.14;69.37
24892;BME280;12954;50.688;10.908;2022-10-16T11:36:57;95796.66;;;15.94;69.31
24892;BME280;12954;50.688;10.908;2022-10-16T11:39:29;95817.31;;;16.17;69.09
24892;BME280;12954;50.688;10.908;2022-10-16T11:42:02;95790.72;;;15.92;69.22
24892;BME280;12954;50.688;10.908;2022-10-16T11:44:51;95819.53;;;16.15;68.70
24892;BME280;12954;50.688;10.908;2022-10-16T11:47:30;95821.78;;;16.13;69.17
24892;BME280;12954;50.688;10.908;2022-10-16T11:50:25;95820.94;;;16.26;68.68
24892;BME280;12954;50.688;10.908;2022-10-16T11:53:01;95812.81;;;16.35;68.41
24892;BME280;12954;50.688;10.908;2022-10-16T11:55:34;95773.03;;;16.03;68.44
24892;BME280;12954;50.688;10.908;2022-10-16T11:58:16;95824.31;;;16.32;67.98
24892;BME280;12954;50.688;10.908;2022-10-16T12:00:50;95820.63;;;16.28;68.07
24892;BME280;12954;50.688;10.908;2022-10-16T12:03:22;95818.88;;;16.32;68.00
24892;BME280;12954;50.688;10.908;2022-10-16T12:06:06;95816.84;;;16.37;68.24
24892;BME280;12954;50.688;10.908;2022-10-16T12:08:40;95815.59;;;16.43;68.12
24892;BME280;12954;50.688;10.908;2022-10-16T12:11:19;95798.53;;;16.29;67.87
24892;BME280;12954;50.688;10.908;2022-10-16T12:13:49;95792.13;;;16.25;67.25
24892;BME280;12954;50.688;10.908;2022-10-16T12:16:22;95832.94;;;16.47;65.95
24892;BME280;12954;50.688;10.908;2022-10-16T12:19:13;95820.38;;;16.38;66.63
24892;BME280;12954;50.688;10.908;2022-10-16T12:21:45;95833.16;;;16.37;67.14
24892;BME280;12954;50.688;10.908;2022-10-16T12:24:26;95818.22;;;16.48;67.21
24892;BME280;12954;50.688;10.908;2022-10-16T12:26:56;95831.31;;;16.46;67.29
24892;BME280;12954;50.688;10.908;2022-10-16T12:29:32;95838.25;;;16.52;67.11
24892;BME280;12954;50.688;10.908;2022-10-16T12:32:03;95829.09;;;16.48;67.15
24892;BME280;12954;50.688;10.908;2022-10-16T12:34:38;95832.94;;;16.47;67.02
24892;BME280;12954;50.688;10.908;2022-10-16T12:37:18;95837.72;;;16.42;66.83
24892;BME280;12954;50.688;10.908;2022-10-16T12:39:49;95832.00;;;16.30;66.57
24892;BME280;12954;50.688;10.908;2022-10-16T12:42:32;95778.16;;;15.82;66.61
24892;BME280;12954;50.688;10.908;2022-10-16T12:45:23;95820.97;;;16.12;66.53
24892;BME280;12954;50.688;10.908;2022-10-16T12:47:54;95821.59;;;16.09;67.07
24892;BME280;12954;50.688;10.908;2022-10-16T12:50:26;95823.88;;;16.16;66.85
24892;BME280;12954;50.688;10.908;2022-10-16T12:52:57;95810.03;;;16.04;66.84
24892;BME280;12954;50.688;10.908;2022-10-16T12:55:26;95819.94;;;16.22;66.46
24892;BME280;12954;50.688;10.908;2022-10-16T13:00:54;95825.28;;;16.27;66.65
24892;BME280;12954;50.688;10.908;2022-10-16T13:03:51;95810.63;;;16.23;66.32
24892;BME280;12954;50.688;10.908;2022-10-16T13:06:30;95826.56;;;16.30;66.60
24892;BME280;12954;50.688;10.908;2022-10-16T13:09:18;95800.34;;;16.20;66.61
24892;BME280;12954;50.688;10.908;2022-10-16T13:12:06;95831.16;;;16.43;66.53
24892;BME280;12954;50.688;10.908;2022-10-16T13:17:35;95833.94;;;16.51;66.24
24892;BME280;12954;50.688;10.908;2022-10-16T13:20:15;95738.22;;;15.91;65.50
24892;BME280;12954;50.688;10.908;2022-10-16T13:22:51;95848.41;;;16.60;66.05